Flight Track Log - Related Links

Times and Time Zones

All times are in EDT time to prevent confusion due to time zone crossing. See the EJA831 flight status page for this flight to view local times or setup timezone preferences in your user account.


Time Position Orientation Groundspeed Altitude Reporting Facility
EDT Latitude Longitude Course Direction KTS MPH feet Rate Location/Type
Thu 01:24:00 PM 34.3222 -77.9206 270° West 140 161 6,600  Level Washington Center
Thu 01:24:58 PM 34.3225 -78.0136 270° West 163 188 9,800 2,898 Climbing Washington Center
Thu 01:25:58 PM 34.3164 -78.1139 266° West 225 259 12,300 2,400 Climbing Washington Center
Thu 01:27:08 PM 34.3133 -78.2242 268° West 274 315 15,000 2,169 Climbing Jacksonville Center
Thu 01:28:08 PM 34.3044 -78.3253 264° West 297 342 17,000 2,100 Climbing Jacksonville Center
Thu 01:29:08 PM 34.2989 -78.4564 267° West 342 394 19,200 2,050 Climbing Jacksonville Center
Thu 01:30:08 PM 34.2925 -78.5797 266° West 367 422 21,100 1,400 Climbing Jacksonville Center
Thu 01:31:08 PM 34.2844 -78.7108 266° West 381 438 22,000 450 Climbing Jacksonville Center
Thu 01:32:08 PM 34.2786 -78.8494 267° West 404 465 22,000  Level Jacksonville Center
Thu 01:33:08 PM 34.2725 -78.9853 267° West 409 471 22,000  Level Jacksonville Center
Thu 01:34:08 PM 34.2639 -79.1189 266° West 409 471 22,000  Level Jacksonville Center
Thu 01:35:08 PM 34.2553 -79.2497 265° West 409 471 22,000  Level Jacksonville Center
Thu 01:36:08 PM 34.2467 -79.3808 265° West 409 471 22,000  Level Jacksonville Center
Thu 01:37:08 PM 34.2436 -79.5064 268° West 402 463 22,000  Level Jacksonville Center
Thu 01:38:08 PM 34.2389 -79.6397 268° West 402 463 22,000  Level Jacksonville Center
Thu 01:39:08 PM 34.2958 -79.7483 302° West 378 435 22,000  Level Jacksonville Center
Thu 01:40:08 PM 34.3653 -79.8539 309° West 382 440 22,000  Level Jacksonville Center
Thu 01:41:08 PM 34.4386 -79.9569 311° West 388 447 22,000  Level Jacksonville Center
Thu 01:42:49 PM 34.5544 -80.1369 279° West 408 470 22,000  Level Atlanta Center
Thu 01:43:49 PM 34.6228 -80.2525 306° West 408 470 22,000  Level Atlanta Center
Thu 01:44:49 PM 34.6725 -80.3767 296° West 408 470 22,000  Level Atlanta Center
Thu 01:45:49 PM 34.7222 -80.5033 296° West 408 470 22,000 -50 Level Atlanta Center
Thu 01:46:49 PM 34.7714 -80.6250 296° West 414 476 21,900 -550 Descending Atlanta Center
Thu 01:47:49 PM 34.8269 -80.7417 300° West 401 461 20,900 -1,100 Descending Atlanta Center
Thu 01:48:49 PM 34.8925 -80.8531 306° West 401 461 19,700 -1,250 Descending Atlanta Center
Thu 01:49:49 PM 34.9492 -80.9497 306° West 401 461 18,400 -4,350 Descending Atlanta Center
Thu 01:50:49 PM 35.0122 -81.0564 306° West 396 456 11,000 -200 Descending Atlanta Center
Thu 01:51:49 PM 35.0753 -81.1658 305° West 398 458 18,000 3,500 Climbing Atlanta Center
Thu 01:52:49 PM 35.1181 -81.2939 292° West 398 458 18,000  Level Atlanta Center
Thu 01:53:49 PM 35.1564 -81.4322 289° West 398 458 18,000 -800 Level Atlanta Center
Thu 01:54:49 PM 35.1944 -81.5506 292° West 392 451 16,400 -1,500 Descending Atlanta Center
Thu 01:55:49 PM 35.2300 -81.6689 290° West 380 437 15,000 -700 Descending Atlanta Center
Thu 01:56:49 PM 35.2636 -81.7875 289° West 380 437 15,000 -300 Level Atlanta Center
Thu 01:57:49 PM 35.2992 -81.9064 290° West 375 432 14,400 -1,050 Descending Atlanta Center
Thu 01:58:49 PM 35.3322 -82.0175 290° West 362 417 12,900 -1,500 Descending Atlanta Center
Thu 01:59:49 PM 35.3633 -82.1236 290° West 344 396 11,400 -1,350 Descending Atlanta Center
Thu 02:00:49 PM 35.3897 -82.2147 290° West 331 381 10,200 -1,350 Descending Atlanta Center
Thu 02:01:49 PM 35.4097 -82.3086 285° West 299 344 8,700 -1,550 Descending Atlanta Center
Thu 02:02:49 PM 35.4506 -82.3892 302° West 293 337 7,100 -1,300 Descending Atlanta Center
Thu 02:03:49 PM 35.5014 -82.4419 320° Northwest 271 312 6,100 -500 Descending Atlanta Center
Thu 02:04:49 PM 35.5711 -82.5094 322° Northwest 271 312 6,100  Level Atlanta Center
Thu 02:05:49 PM 35.6486 -82.5308 347° North 265 305 6,100 -50 Level Atlanta Center
Thu 02:06:49 PM 35.6681 -82.5969 290° West 200 230 6,000 -100 Descending Atlanta Center

Login

Don't have an account? Register now (free) for customized features, flight alerts, and more!